Alegria, Brazil
Current Conditions -  °F | °C
As of 9:00 AM on Thursday 25 Dec 2014 (Local Time) from SBDN Reporting Station
Scattered Clouds Scattered Clouds  
Wind Chill: 73°   Ceiling: Unl
Heat Index: 73°   Visibility: 6mi
Dew Point: 68°   Wind: 12mph
Humidity: 83%   Direction: 100°E
Pressure: 30.03"   Gusts: NA
Location:  22.52°S, 50.92°W
Report Text: SBDN 251100Z 10010KT 9999 SCT021 SCT100 23/20 Q1017
Loading
Personal Weather Stations






























Interactive Weather Map New forecast layout! Learn more

10-Day Weather Forecast

Advertisements
Track Severe Weather on mobile